createdAt,value
2022-10-01T00:00:03.249Z,10.57
2022-10-01T00:02:55.751Z,10.56
2022-10-01T00:05:27.620Z,10.56
2022-10-01T00:07:59.352Z,10.57
2022-10-01T00:10:32.876Z,10.57
2022-10-01T00:13:05.016Z,10.57
2022-10-01T00:15:36.718Z,10.56
2022-10-01T00:18:09.111Z,10.54
2022-10-01T00:20:43.592Z,10.53
2022-10-01T00:23:16.803Z,10.53
2022-10-01T00:25:49.679Z,10.54
2022-10-01T00:28:21.777Z,10.55
2022-10-01T00:30:53.718Z,10.55
2022-10-01T00:33:25.469Z,10.54
2022-10-01T00:35:57.878Z,10.53
2022-10-01T00:38:30.031Z,10.53
2022-10-01T00:41:01.801Z,10.53
2022-10-01T00:43:34.933Z,10.54
2022-10-01T00:46:11.112Z,10.53
2022-10-01T00:48:47.814Z,10.52
2022-10-01T00:51:21.193Z,10.51
2022-10-01T00:53:52.974Z,10.51
2022-10-01T00:56:25.006Z,10.48
2022-10-01T00:58:57.129Z,10.48
2022-10-01T01:01:29.207Z,10.48
2022-10-01T01:04:01.631Z,10.48
2022-10-01T01:06:33.465Z,10.48
2022-10-01T01:09:05.203Z,10.49
2022-10-01T01:11:43.427Z,10.50
2022-10-01T01:14:19.300Z,10.49
2022-10-01T01:16:53.459Z,10.49
2022-10-01T01:19:34.923Z,10.48
2022-10-01T01:22:08.449Z,10.47
2022-10-01T01:24:49.091Z,10.46
2022-10-01T01:27:29.480Z,10.45
2022-10-01T01:30:05.358Z,10.45
2022-10-01T01:32:46.685Z,10.45
2022-10-01T01:35:22.312Z,10.45
2022-10-01T01:37:56.479Z,10.45
2022-10-01T01:40:29.643Z,10.45
2022-10-01T01:43:02.215Z,10.45
2022-10-01T01:45:35.711Z,10.43
2022-10-01T01:48:09.317Z,10.42
2022-10-01T01:50:46.445Z,10.41
2022-10-01T01:53:18.395Z,10.42
2022-10-01T01:55:51.359Z,10.43
2022-10-01T01:58:24.360Z,10.44
2022-10-01T02:00:56.430Z,10.45
2022-10-01T02:03:29.501Z,10.45
2022-10-01T02:06:09.454Z,10.44
2022-10-01T02:08:44.179Z,10.43
2022-10-01T02:11:26.948Z,10.45
2022-10-01T02:14:08.225Z,10.44
2022-10-01T02:16:48.265Z,10.45
2022-10-01T02:19:27.665Z,10.45
2022-10-01T02:22:02.211Z,10.44
2022-10-01T02:24:41.397Z,10.44
2022-10-01T02:27:17.369Z,10.44
2022-10-01T02:29:49.762Z,10.44
2022-10-01T02:32:22.084Z,10.41
2022-10-01T02:34:55.703Z,10.38
2022-10-01T02:37:29.158Z,10.36
2022-10-01T02:40:02.414Z,10.35
2022-10-01T02:42:35.927Z,10.32
2022-10-01T02:45:09.396Z,10.27
2022-10-01T02:47:44.534Z,10.22
2022-10-01T02:50:17.039Z,10.17
2022-10-01T02:52:53.825Z,10.12
2022-10-01T02:55:29.798Z,10.10
2022-10-01T02:58:01.542Z,10.06
2022-10-01T03:00:33.710Z,10.04
2022-10-01T03:03:05.461Z,10.01
2022-10-01T03:05:37.315Z,9.99
2022-10-01T03:08:09.305Z,9.99
2022-10-01T03:10:44.709Z,9.99
2022-10-01T03:13:19.929Z,10.00
2022-10-01T03:15:51.734Z,10.01
2022-10-01T03:18:23.572Z,10.01
2022-10-01T03:20:55.233Z,10.02
2022-10-01T03:23:27.017Z,10.00
2022-10-01T03:25:58.662Z,9.99
2022-10-01T03:28:30.502Z,9.97
2022-10-01T03:31:09.894Z,9.96
2022-10-01T03:33:41.707Z,9.93
2022-10-01T03:36:13.354Z,9.93
2022-10-01T03:38:45.180Z,9.92
2022-10-01T03:41:16.800Z,9.92
2022-10-01T03:43:48.625Z,9.90
2022-10-01T03:46:20.310Z,9.89
2022-10-01T03:48:52.265Z,9.88
2022-10-01T03:51:23.940Z,9.85
2022-10-01T03:53:56.708Z,9.80
2022-10-01T03:56:28.446Z,9.75
2022-10-01T03:59:00.265Z,9.72
2022-10-01T04:01:32.447Z,9.70
2022-10-01T04:04:05.369Z,9.67
2022-10-01T04:06:37.279Z,9.65
2022-10-01T04:09:09.827Z,9.64
2022-10-01T04:11:41.563Z,9.63
2022-10-01T04:14:13.423Z,9.62
2022-10-01T04:16:45.368Z,9.60
2022-10-01T04:19:17.562Z,9.57
2022-10-01T04:21:49.635Z,9.55
2022-10-01T04:24:21.572Z,9.52
2022-10-01T04:26:54.829Z,9.50
2022-10-01T04:29:26.811Z,9.48
2022-10-01T04:31:58.882Z,9.46
2022-10-01T04:34:44.753Z,9.45
2022-10-01T04:37:16.795Z,9.44
2022-10-01T04:39:48.902Z,9.44
2022-10-01T04:42:20.930Z,9.42
2022-10-01T04:44:52.981Z,9.40
2022-10-01T04:47:24.799Z,9.36
2022-10-01T04:49:56.629Z,9.32
2022-10-01T04:52:28.821Z,9.28
2022-10-01T04:55:01.469Z,9.26
2022-10-01T04:57:33.258Z,9.26
2022-10-01T05:00:06.427Z,9.25
2022-10-01T05:02:38.160Z,9.24
2022-10-01T05:05:11.380Z,9.22
2022-10-01T05:07:44.496Z,9.22
2022-10-01T05:10:18.292Z,9.21
2022-10-01T05:12:52.098Z,9.21
2022-10-01T05:15:24.222Z,9.20
2022-10-01T05:17:55.943Z,9.19
2022-10-01T05:20:29.282Z,9.18
2022-10-01T05:23:01.028Z,9.17
2022-10-01T05:25:33.393Z,9.14
2022-10-01T05:28:06.039Z,9.10
2022-10-01T05:30:38.347Z,9.04
2022-10-01T05:33:10.040Z,8.98
2022-10-01T05:35:43.106Z,8.97
2022-10-01T05:38:14.983Z,8.96
2022-10-01T05:40:49.066Z,8.97
2022-10-01T05:43:19.219Z,8.98
2022-10-01T05:45:51.383Z,8.97
2022-10-01T05:48:23.132Z,8.98
2022-10-01T05:50:55.224Z,8.98
2022-10-01T05:53:27.692Z,8.98
2022-10-01T05:56:03.130Z,8.97
2022-10-01T05:58:35.337Z,8.97
2022-10-01T06:01:07.547Z,8.97
2022-10-01T06:03:39.297Z,8.98
2022-10-01T06:06:11.210Z,9.00
2022-10-01T06:08:47.284Z,9.01
2022-10-01T06:11:19.815Z,9.02
2022-10-01T06:13:51.565Z,9.04
2022-10-01T06:16:23.308Z,9.06
2022-10-01T06:18:57.839Z,9.07
2022-10-01T06:21:30.751Z,9.08
2022-10-01T06:24:02.894Z,9.09
2022-10-01T06:26:34.731Z,9.10
2022-10-01T06:29:06.485Z,9.11
2022-10-01T06:31:38.970Z,9.14
2022-10-01T06:34:10.940Z,9.16
2022-10-01T06:36:42.896Z,9.19
2022-10-01T06:39:14.948Z,9.23
2022-10-01T06:41:48.490Z,9.27
2022-10-01T06:44:20.787Z,9.33
2022-10-01T06:46:54.336Z,9.39
2022-10-01T06:49:26.985Z,9.46
2022-10-01T06:52:16.506Z,9.55
2022-10-01T06:54:48.283Z,9.65
2022-10-01T06:57:20.084Z,9.74
2022-10-01T06:59:52.410Z,9.82
2022-10-01T07:02:28.197Z,9.90
2022-10-01T07:05:00.050Z,9.98
2022-10-01T07:07:35.160Z,10.06
2022-10-01T07:10:09.072Z,10.12
2022-10-01T07:12:39.742Z,10.19
2022-10-01T07:15:12.259Z,10.25
2022-10-01T07:17:48.468Z,10.33
2022-10-01T07:20:21.454Z,10.42
2022-10-01T07:22:59.527Z,10.48
2022-10-01T07:25:31.530Z,10.55
2022-10-01T07:28:05.491Z,10.63
2022-10-01T07:30:40.628Z,10.71
2022-10-01T07:33:13.418Z,10.77
2022-10-01T07:35:48.892Z,10.82
2022-10-01T07:38:20.702Z,10.87
2022-10-01T07:40:55.052Z,10.93
2022-10-01T07:43:26.836Z,10.98
2022-10-01T07:46:00.286Z,11.02
2022-10-01T07:48:32.317Z,11.07
2022-10-01T07:51:04.328Z,11.15
2022-10-01T07:53:36.858Z,11.21
2022-10-01T07:56:08.689Z,11.25
2022-10-01T07:58:42.309Z,11.29
2022-10-01T08:01:13.888Z,11.33
2022-10-01T08:03:45.927Z,11.40
2022-10-01T08:06:21.935Z,11.47
2022-10-01T08:08:56.472Z,11.61
2022-10-01T08:11:28.126Z,11.81
2022-10-01T08:13:59.994Z,11.99
2022-10-01T08:16:33.784Z,12.15
2022-10-01T08:19:04.161Z,12.37
2022-10-01T08:21:36.847Z,12.59
2022-10-01T08:24:09.370Z,12.76
2022-10-01T08:26:41.163Z,12.87
2022-10-01T08:29:16.935Z,13.07
2022-10-01T08:31:49.365Z,13.34
2022-10-01T08:34:21.575Z,13.65
2022-10-01T08:36:54.762Z,13.98
2022-10-01T08:39:26.828Z,14.26
2022-10-01T08:42:06.464Z,14.53
2022-10-01T08:44:42.378Z,14.80
2022-10-01T08:47:19.847Z,14.90
2022-10-01T08:49:54.946Z,15.01
2022-10-01T08:52:29.825Z,15.20
2022-10-01T08:55:03.393Z,15.42
2022-10-01T08:57:39.274Z,15.63
2022-10-01T09:00:15.215Z,15.87
2022-10-01T09:02:47.858Z,15.93
2022-10-01T09:05:25.486Z,15.84
2022-10-01T09:08:05.412Z,15.74
2022-10-01T09:10:45.804Z,15.66
2022-10-01T09:13:34.081Z,15.52
2022-10-01T09:16:13.614Z,15.35
2022-10-01T09:18:58.253Z,15.20
2022-10-01T09:21:41.401Z,15.07
2022-10-01T09:24:16.854Z,14.92
2022-10-01T09:26:49.958Z,14.76
2022-10-01T09:29:26.902Z,14.59
2022-10-01T09:31:59.216Z,14.39
2022-10-01T09:34:34.360Z,14.20
2022-10-01T09:37:14.914Z,14.04
2022-10-01T09:39:55.053Z,13.93
2022-10-01T09:42:29.048Z,13.78
2022-10-01T09:45:00.882Z,13.64
2022-10-01T09:47:35.365Z,13.52
2022-10-01T09:50:11.124Z,13.43
2022-10-01T09:52:43.805Z,13.34
2022-10-01T09:55:26.972Z,13.25
2022-10-01T09:58:03.534Z,13.16
2022-10-01T10:00:35.330Z,13.09
2022-10-01T10:03:07.577Z,13.06
2022-10-01T10:05:49.593Z,13.01
2022-10-01T10:08:26.944Z,12.98
2022-10-01T10:11:01.557Z,12.95
2022-10-01T10:13:39.126Z,12.92
2022-10-01T10:16:17.160Z,12.87
2022-10-01T10:18:52.347Z,12.82
2022-10-01T10:21:26.877Z,12.78
2022-10-01T10:24:00.292Z,12.75
2022-10-01T10:26:33.868Z,12.71
2022-10-01T10:29:08.445Z,12.67
2022-10-01T10:31:44.252Z,12.61
2022-10-01T10:34:19.132Z,12.55
2022-10-01T10:36:53.380Z,12.51
2022-10-01T10:39:29.472Z,12.48
2022-10-01T10:42:02.397Z,12.44
2022-10-01T10:44:38.964Z,12.40
2022-10-01T10:47:14.928Z,12.35
2022-10-01T10:49:48.754Z,12.32
2022-10-01T10:52:30.895Z,12.27
2022-10-01T10:55:04.554Z,12.25
2022-10-01T10:57:38.043Z,12.25
2022-10-01T11:00:16.796Z,12.25
2022-10-01T11:02:55.822Z,12.27
2022-10-01T11:05:30.251Z,12.31
2022-10-01T11:08:04.207Z,12.35
2022-10-01T11:10:46.178Z,12.38
2022-10-01T11:13:42.380Z,12.40
2022-10-01T11:16:27.842Z,12.40
2022-10-01T11:19:07.852Z,12.41
2022-10-01T11:21:55.443Z,12.43
2022-10-01T11:24:43.703Z,12.48
2022-10-01T11:27:24.509Z,12.57
2022-10-01T11:30:03.524Z,12.67
2022-10-01T11:32:41.567Z,12.77
2022-10-01T11:35:40.616Z,12.87
2022-10-01T11:38:40.074Z,12.99
2022-10-01T11:41:23.812Z,13.09
2022-10-01T11:43:58.895Z,13.18
2022-10-01T11:46:43.093Z,13.24
2022-10-01T11:49:37.310Z,13.29
2022-10-01T11:52:15.889Z,13.31
2022-10-01T11:54:57.618Z,13.32
2022-10-01T11:57:46.309Z,13.34
2022-10-01T12:00:18.145Z,13.36
2022-10-01T12:02:54.070Z,13.40
2022-10-01T12:05:28.799Z,13.47
2022-10-01T12:08:07.346Z,13.57
2022-10-01T12:10:44.438Z,13.66
2022-10-01T12:13:22.901Z,13.77
2022-10-01T12:15:59.040Z,13.89
2022-10-01T12:18:34.492Z,14.00
2022-10-01T12:21:13.232Z,14.06
2022-10-01T12:23:47.493Z,14.06
2022-10-01T12:26:23.760Z,14.08
2022-10-01T12:29:00.531Z,14.10
2022-10-01T12:31:39.781Z,14.10
2022-10-01T12:34:16.474Z,14.11
2022-10-01T12:36:55.971Z,14.10
2022-10-01T12:39:37.689Z,14.13
2022-10-01T12:42:20.869Z,14.16
2022-10-01T12:45:02.651Z,14.16
2022-10-01T12:47:42.205Z,14.14
2022-10-01T12:50:26.548Z,14.11
2022-10-01T12:53:16.633Z,14.12
2022-10-01T12:56:01.092Z,14.12
2022-10-01T12:58:46.777Z,14.14
2022-10-01T13:01:28.401Z,14.22
2022-10-01T13:04:24.535Z,14.30
2022-10-01T13:07:05.627Z,14.34
2022-10-01T13:09:48.665Z,14.36
2022-10-01T13:12:34.385Z,14.37
2022-10-01T13:15:07.016Z,14.36
2022-10-01T13:17:43.292Z,14.29
2022-10-01T13:20:18.408Z,14.21
2022-10-01T13:22:54.934Z,14.15
2022-10-01T13:25:33.765Z,14.10
2022-10-01T13:28:13.652Z,14.07
2022-10-01T13:30:56.036Z,14.04
2022-10-01T13:33:29.333Z,13.99
2022-10-01T13:36:02.803Z,13.94
2022-10-01T13:38:44.130Z,13.91
2022-10-01T13:41:22.635Z,13.87
2022-10-01T13:43:58.323Z,13.84
2022-10-01T13:46:33.248Z,13.82
2022-10-01T13:49:09.388Z,13.79
2022-10-01T13:51:41.881Z,13.78
2022-10-01T13:54:27.823Z,13.77
2022-10-01T13:57:10.212Z,13.73
2022-10-01T13:59:43.637Z,13.71
2022-10-01T14:02:32.018Z,13.70
2022-10-01T14:05:23.975Z,13.66
2022-10-01T14:08:11.493Z,13.63
2022-10-01T14:11:06.459Z,13.60
2022-10-01T14:14:03.534Z,13.59
2022-10-01T14:16:39.149Z,13.57
2022-10-01T14:19:11.658Z,13.55
2022-10-01T14:21:53.518Z,13.52
2022-10-01T14:24:31.871Z,13.49
2022-10-01T14:27:09.604Z,13.47
2022-10-01T14:29:50.254Z,13.45
2022-10-01T14:32:30.283Z,13.43
2022-10-01T14:35:20.828Z,13.39
2022-10-01T14:37:52.833Z,13.35
2022-10-01T14:40:25.610Z,13.31
2022-10-01T14:43:02.282Z,13.25
2022-10-01T14:45:34.313Z,13.19
2022-10-01T14:48:07.889Z,13.15
2022-10-01T14:50:40.356Z,13.11
2022-10-01T14:53:16.034Z,13.08
2022-10-01T14:55:49.384Z,13.04
2022-10-01T14:58:26.887Z,13.00
2022-10-01T15:00:59.247Z,12.99
2022-10-01T15:03:38.655Z,12.97
2022-10-01T15:06:14.784Z,12.93
2022-10-01T15:08:47.958Z,12.91
2022-10-01T15:11:21.210Z,12.88
2022-10-01T15:13:54.737Z,12.83
2022-10-01T15:16:26.082Z,12.79
2022-10-01T15:18:59.479Z,12.74
2022-10-01T15:21:36.106Z,12.72
2022-10-01T15:24:12.218Z,12.70
2022-10-01T15:26:44.399Z,12.69
2022-10-01T15:29:18.423Z,12.67
2022-10-01T15:31:53.226Z,12.64
2022-10-01T15:34:27.154Z,12.62
2022-10-01T15:36:57.449Z,12.59
2022-10-01T15:39:33.394Z,12.55
2022-10-01T15:42:09.659Z,12.53
2022-10-01T15:44:45.644Z,12.50
2022-10-01T15:47:29.375Z,12.47
2022-10-01T15:50:19.542Z,12.45
2022-10-01T15:53:00.248Z,12.41
2022-10-01T15:55:36.553Z,12.39
2022-10-01T15:58:15.214Z,12.37
2022-10-01T16:00:57.945Z,12.36
2022-10-01T16:03:33.629Z,12.32
2022-10-01T16:06:07.200Z,12.29
2022-10-01T16:08:50.456Z,12.28
2022-10-01T16:11:27.822Z,12.26
2022-10-01T16:14:29.936Z,12.23
2022-10-01T16:17:33.839Z,12.19
2022-10-01T16:20:43.920Z,12.17
2022-10-01T16:23:43.960Z,12.14
2022-10-01T16:26:34.997Z,12.12
2022-10-01T16:29:14.339Z,12.09
2022-10-01T16:31:46.731Z,12.07
2022-10-01T16:34:19.932Z,12.05
2022-10-01T16:36:52.254Z,12.02
2022-10-01T16:39:25.375Z,12.00
2022-10-01T16:42:22.165Z,11.98
2022-10-01T16:44:48.928Z,11.97
2022-10-01T16:47:20.545Z,11.96
2022-10-01T16:49:53.466Z,11.95
2022-10-01T16:52:25.072Z,11.94
2022-10-01T16:54:57.103Z,11.92
2022-10-01T16:57:28.962Z,11.91
2022-10-01T17:00:00.611Z,11.90
2022-10-01T17:02:32.363Z,11.89
2022-10-01T17:05:04.182Z,11.88
2022-10-01T17:07:35.832Z,11.86
2022-10-01T17:10:08.667Z,11.85
2022-10-01T17:12:40.837Z,11.84
2022-10-01T17:15:17.341Z,11.82
2022-10-01T17:17:49.327Z,11.82
2022-10-01T17:20:21.526Z,11.81
2022-10-01T17:22:53.911Z,11.81
2022-10-01T17:25:28.050Z,11.81
2022-10-01T17:28:01.308Z,11.80
2022-10-01T17:30:33.791Z,11.80
2022-10-01T17:33:05.905Z,11.79
2022-10-01T17:35:38.434Z,11.80
2022-10-01T17:38:11.952Z,11.79
2022-10-01T17:40:45.301Z,11.78
2022-10-01T17:43:18.394Z,11.77
2022-10-01T17:45:57.964Z,11.76
2022-10-01T17:48:30.475Z,11.76
2022-10-01T17:51:05.799Z,11.75
2022-10-01T17:53:42.483Z,11.75
2022-10-01T17:56:16.365Z,11.74
2022-10-01T17:58:48.177Z,11.74
2022-10-01T18:01:22.291Z,11.73
2022-10-01T18:03:57.657Z,11.71
2022-10-01T18:06:29.826Z,11.69
2022-10-01T18:09:02.008Z,11.68
2022-10-01T18:11:34.391Z,11.66
2022-10-01T18:14:07.820Z,11.65
2022-10-01T18:16:40.213Z,11.64
2022-10-01T18:22:13.572Z,11.61
2022-10-01T18:24:46.187Z,11.60
2022-10-01T18:27:17.942Z,11.59
2022-10-01T18:29:49.679Z,11.57
2022-10-01T18:32:24.104Z,11.56
2022-10-01T18:34:57.977Z,11.55
2022-10-01T18:37:39.848Z,11.53
2022-10-01T18:40:16.911Z,11.51
2022-10-01T18:42:52.943Z,11.50
2022-10-01T18:45:35.170Z,11.48
2022-10-01T18:48:17.680Z,11.46
2022-10-01T18:50:53.717Z,11.44
2022-10-01T18:53:34.891Z,11.43
2022-10-01T18:56:27.598Z,11.43
2022-10-01T18:59:19.357Z,11.42
2022-10-01T19:02:00.662Z,11.41
2022-10-01T19:04:49.361Z,11.40
2022-10-01T19:07:32.428Z,11.38
2022-10-01T19:10:11.118Z,11.38
2022-10-01T19:12:54.824Z,11.38
2022-10-01T19:15:34.775Z,11.37
2022-10-01T19:18:17.444Z,11.35
2022-10-01T19:20:55.521Z,11.34
2022-10-01T19:24:01.043Z,11.32
2022-10-01T19:26:37.779Z,11.31
2022-10-01T19:29:22.468Z,11.29
2022-10-01T19:31:56.701Z,11.27
2022-10-01T19:34:31.483Z,11.26
2022-10-01T19:37:08.302Z,11.25
2022-10-01T19:39:42.582Z,11.24
2022-10-01T19:42:17.789Z,11.23
2022-10-01T19:44:55.773Z,11.21
2022-10-01T19:47:36.336Z,11.20
2022-10-01T19:50:21.281Z,11.19
2022-10-01T19:52:55.229Z,11.18
2022-10-01T19:55:27.722Z,11.18
2022-10-01T19:57:59.633Z,11.18
2022-10-01T20:00:31.844Z,11.18
2022-10-01T20:03:09.070Z,11.16
2022-10-01T20:05:45.986Z,11.13
2022-10-01T20:08:25.089Z,11.12
2022-10-01T20:10:58.673Z,11.10
2022-10-01T20:13:41.981Z,11.08
2022-10-01T20:16:19.611Z,11.04
2022-10-01T20:18:57.445Z,11.02
2022-10-01T20:21:45.574Z,11.00
2022-10-01T20:24:28.961Z,10.99
2022-10-01T20:27:11.730Z,10.97
2022-10-01T20:29:50.530Z,10.95
2022-10-01T20:32:25.994Z,10.93
2022-10-01T20:35:07.538Z,10.91
2022-10-01T20:37:48.230Z,10.91
2022-10-01T20:40:25.227Z,10.89
2022-10-01T20:43:04.350Z,10.89
2022-10-01T20:45:37.429Z,10.88
2022-10-01T20:48:14.931Z,10.87
2022-10-01T20:50:48.947Z,10.87
2022-10-01T20:53:26.949Z,10.86
2022-10-01T20:56:04.274Z,10.86
2022-10-01T20:58:44.671Z,10.86
2022-10-01T21:01:20.629Z,10.86
2022-10-01T21:03:57.027Z,10.86
2022-10-01T21:06:35.577Z,10.86
2022-10-01T21:09:15.842Z,10.86
2022-10-01T21:11:49.322Z,10.86
2022-10-01T21:14:26.791Z,10.86
2022-10-01T21:17:13.035Z,10.86
2022-10-01T21:19:54.869Z,10.86
2022-10-01T21:22:38.832Z,10.87
2022-10-01T21:25:16.306Z,10.87
2022-10-01T21:31:20.969Z,10.85
2022-10-01T21:33:54.240Z,10.84
2022-10-01T21:36:31.145Z,10.86
2022-10-01T21:39:05.586Z,10.90
2022-10-01T21:41:42.975Z,10.94
2022-10-01T21:45:00.226Z,10.97
2022-10-01T21:47:36.275Z,11.01
2022-10-01T21:50:09.987Z,11.02
2022-10-01T21:52:46.563Z,11.03
2022-10-01T21:55:29.562Z,11.04
2022-10-01T21:58:07.658Z,11.05
2022-10-01T22:00:37.905Z,11.06
2022-10-01T22:03:18.583Z,11.07
2022-10-01T22:05:58.288Z,11.08
2022-10-01T22:08:39.878Z,11.09
2022-10-01T22:11:12.559Z,11.10
2022-10-01T22:13:47.313Z,11.12
2022-10-01T22:16:22.537Z,11.11
2022-10-01T22:18:53.861Z,11.11
2022-10-01T22:21:30.671Z,11.08
2022-10-01T22:24:07.468Z,11.05
2022-10-01T22:26:40.223Z,11.03
2022-10-01T22:29:15.401Z,11.01
2022-10-01T22:31:45.979Z,10.98
2022-10-01T22:34:17.618Z,10.96
2022-10-01T22:36:48.977Z,10.96
2022-10-01T22:39:21.478Z,10.94
2022-10-01T22:41:52.947Z,10.92
2022-10-01T22:44:23.385Z,10.90
2022-10-01T22:47:13.581Z,10.87
2022-10-01T22:49:59.908Z,10.84
2022-10-01T22:52:39.530Z,10.83
2022-10-01T22:55:28.492Z,10.82
2022-10-01T22:58:08.846Z,10.81
2022-10-01T23:00:49.319Z,10.78
2022-10-01T23:03:23.091Z,10.76
2022-10-01T23:06:00.363Z,10.74
2022-10-01T23:08:32.945Z,10.74
2022-10-01T23:11:11.539Z,10.73
2022-10-01T23:13:46.962Z,10.72
2022-10-01T23:16:23.185Z,10.71
2022-10-01T23:19:05.371Z,10.68
2022-10-01T23:21:41.637Z,10.68
2022-10-01T23:24:27.438Z,10.70
2022-10-01T23:27:06.613Z,10.71
2022-10-01T23:29:53.178Z,10.70
2022-10-01T23:32:31.691Z,10.67
2022-10-01T23:35:03.745Z,10.65
2022-10-01T23:37:47.006Z,10.63
2022-10-01T23:40:17.622Z,10.63
2022-10-01T23:42:52.659Z,10.62
2022-10-01T23:45:23.879Z,10.58
2022-10-01T23:48:00.409Z,10.55
2022-10-01T23:50:40.460Z,10.54
2022-10-01T23:53:18.734Z,10.53
2022-10-01T23:56:10.925Z,10.53
2022-10-01T23:58:48.492Z,10.53
